Time;durP1;ratioP1;P1;durP2;ratioP2;P2;SDS_P1;SDS_P2;PMS_P1;PMS_P2;Temp;Humidity;BMP_temperature;BMP_pressure;BME280_temperature;BME280_humidity;BME280_pressure;Samples;Min_cycle;Max_cycle;Signal;HPM_P1;HPM_P2
2024/02/16 00:01:19;;;;;;;0.20;0.20;;;;;;;10.54;100.00;98961.53;5034404;28;20447;-58
2024/02/16 00:03:49;;;;;;;0.25;0.25;;;;;;;10.50;100.00;98975.66;5029698;28;20095;-58
2024/02/16 00:06:16;;;;;;;0.17;0.17;;;;;;;10.46;100.00;98970.00;5031473;28;20049;-58
2024/02/16 00:08:43;;;;;;;0.10;0.10;;;;;;;10.42;100.00;98968.06;5035736;28;20137;-58
2024/02/16 00:11:10;;;;;;;0.20;0.20;;;;;;;10.37;100.00;98971.47;5028805;28;20053;-58
2024/02/16 00:13:38;;;;;;;0.20;0.20;;;;;;;10.52;100.00;98978.91;5023764;28;20068;-58
2024/02/16 00:16:06;;;;;;;0.20;0.20;;;;;;;10.55;100.00;98971.19;5030429;28;20081;-58
2024/02/16 00:18:33;;;;;;;0.20;0.20;;;;;;;10.60;100.00;98970.44;5035428;28;20045;-58
2024/02/16 00:21:02;;;;;;;0.20;0.20;;;;;;;10.64;100.00;98960.84;5031060;28;20140;-58
2024/02/16 00:23:29;;;;;;;0.20;0.20;;;;;;;10.68;100.00;98969.19;5036306;28;20110;-58
2024/02/16 00:25:56;;;;;;;0.20;0.20;;;;;;;10.69;100.00;98973.50;5036558;28;20049;-58
2024/02/16 00:28:23;;;;;;;0.20;0.20;;;;;;;10.63;100.00;98963.75;5040844;28;20048;-58
2024/02/16 00:30:50;;;;;;;0.10;0.10;;;;;;;10.64;100.00;98962.72;5031921;28;20041;-58
2024/02/16 00:33:18;;;;;;;0.20;0.20;;;;;;;10.64;100.00;98962.72;5026439;28;20056;-59
2024/02/16 00:35:49;;;;;;;0.20;0.20;;;;;;;10.66;100.00;98971.31;5031734;28;20156;-58
2024/02/16 00:38:20;;;;;;;0.20;0.20;;;;;;;10.57;100.00;98966.38;5030986;28;20068;-58
2024/02/16 00:40:50;;;;;;;0.20;0.20;;;;;;;10.71;100.00;98972.19;5029640;28;20063;-58
2024/02/16 00:43:17;;;;;;;;;;;;;;;10.75;100.00;98967.13;5031888;28;20446;-58
2024/02/16 00:45:45;;;;;;;0.10;0.10;;;;;;;10.68;100.00;98971.88;5034357;28;19983;-58
2024/02/16 00:48:12;;;;;;;0.10;0.10;;;;;;;10.59;100.00;98966.16;5039150;28;20857;-58
2024/02/16 00:50:40;;;;;;;0.17;0.17;;;;;;;10.57;100.00;98968.25;5025824;28;20041;-58
2024/02/16 00:53:07;;;;;;;0.20;0.20;;;;;;;10.72;100.00;98959.59;5025859;28;20557;-58
2024/02/16 00:55:37;;;;;;;0.20;0.20;;;;;;;10.69;100.00;98958.22;5032005;28;20125;-59
2024/02/16 00:58:04;;;;;;;0.13;0.13;;;;;;;10.74;100.00;98952.13;5030571;28;20102;-58
2024/02/16 01:00:31;;;;;;;0.20;0.20;;;;;;;10.79;100.00;98949.50;5034448;28;20144;-58
2024/02/16 01:02:59;;;;;;;0.20;0.20;;;;;;;10.73;100.00;98956.69;5029981;28;20068;-58
2024/02/16 01:05:26;;;;;;;0.20;0.20;;;;;;;10.83;100.00;98952.47;5028916;28;20041;-58
2024/02/16 01:07:53;;;;;;;0.20;0.20;;;;;;;10.87;100.00;98957.09;5032804;28;20644;-58
2024/02/16 01:10:24;;;;;;;0.30;0.30;;;;;;;10.91;100.00;98958.22;5030841;28;20178;-58
2024/02/16 01:12:55;;;;;;;0.20;0.20;;;;;;;10.86;100.00;98960.00;5044321;28;20106;-58
2024/02/16 01:15:25;;;;;;;0.15;0.15;;;;;;;10.86;100.00;98965.38;5026941;28;20041;-58
2024/02/16 01:17:52;;;;;;;0.20;0.20;;;;;;;10.90;100.00;98961.16;5032182;28;20060;-58
2024/02/16 01:20:22;;;;;;;0.10;0.10;;;;;;;10.87;100.00;98967.81;5030808;28;20069;-58
2024/02/16 01:22:50;;;;;;;0.20;0.20;;;;;;;10.89;100.00;98960.34;5034964;28;20050;-58
2024/02/16 01:25:17;;;;;;;0.17;0.17;;;;;;;10.95;100.00;98958.50;5035654;28;20049;-58
2024/02/16 01:27:45;;;;;;;0.20;0.20;;;;;;;11.03;100.00;98958.06;5036245;28;20086;-58
2024/02/16 01:30:17;;;;;;;0.10;0.10;;;;;;;11.14;100.00;98956.31;5036967;28;20049;-58
2024/02/16 01:32:45;;;;;;;0.20;0.20;;;;;;;11.14;100.00;98961.69;5039569;28;20071;-58
2024/02/16 01:35:14;;;;;;;0.28;0.28;;;;;;;11.12;100.00;98959.25;5030637;28;20052;-59
2024/02/16 01:37:41;;;;;;;0.20;0.20;;;;;;;11.03;100.00;98955.38;5040994;28;20046;-58
2024/02/16 01:40:14;;;;;;;0.15;0.15;;;;;;;10.92;100.00;98965.19;5035640;28;20476;-58
2024/02/16 01:42:44;;;;;;;0.13;0.13;;;;;;;10.76;100.00;98963.41;5034558;28;20053;-58
2024/02/16 01:45:17;;;;;;;0.10;0.10;;;;;;;10.75;100.00;98970.63;5038025;28;20041;-58
2024/02/16 01:47:46;;;;;;;0.20;0.20;;;;;;;10.69;100.00;98970.81;5037453;28;20059;-58
2024/02/16 01:50:14;;;;;;;0.20;0.20;;;;;;;10.65;100.00;98975.06;5031298;28;20037;-58
2024/02/16 01:52:41;;;;;;;0.17;0.17;;;;;;;10.54;100.00;98974.13;5035502;28;20041;-58
2024/02/16 01:55:10;;;;;;;0.20;0.20;;;;;;;10.65;100.00;98972.38;5039314;28;20037;-58
2024/02/16 01:57:37;;;;;;;0.20;0.20;;;;;;;10.70;100.00;98970.56;5032508;28;20084;-58
2024/02/16 02:00:07;;;;;;;0.20;0.20;;;;;;;10.84;100.00;98968.31;5037841;28;20056;-58
2024/02/16 02:02:40;;;;;;;0.20;0.20;;;;;;;10.92;100.00;98965.19;5035523;28;20051;-59
2024/02/16 02:05:07;;;;;;;0.20;0.20;;;;;;;10.93;100.00;98966.00;5032617;28;20042;-58
2024/02/16 02:07:34;;;;;;;0.20;0.20;;;;;;;10.96;100.00;98963.63;5034274;28;20045;-58
2024/02/16 02:10:01;;;;;;;0.20;0.20;;;;;;;11.00;100.00;98962.06;5039202;28;20113;-58
2024/02/16 02:12:29;;;;;;;0.20;0.20;;;;;;;11.02;100.00;98959.94;5033049;28;20458;-58
2024/02/16 02:14:57;;;;;;;0.30;0.30;;;;;;;11.08;100.00;98958.13;5038412;28;20052;-58
2024/02/16 02:17:26;;;;;;;0.20;0.20;;;;;;;11.00;100.00;98962.06;5035149;28;20438;-58
2024/02/16 02:19:55;;;;;;;0.15;0.15;;;;;;;10.94;100.00;98956.91;5029269;28;20061;-58
2024/02/16 02:22:28;;;;;;;0.10;0.10;;;;;;;10.98;100.00;98948.13;5035313;28;20150;-58
2024/02/16 02:24:56;;;;;;;0.20;0.20;;;;;;;11.00;100.00;98954.00;5034266;28;20038;-58
2024/02/16 02:27:26;;;;;;;0.20;0.20;;;;;;;10.94;100.00;98962.28;5027886;28;20127;-58
2024/02/16 02:29:53;;;;;;;0.20;0.20;;;;;;;10.83;100.00;98955.97;5028228;28;20500;-58
2024/02/16 02:32:23;;;;;;;0.20;0.20;;;;;;;10.76;100.00;98950.00;5038247;28;20047;-58
2024/02/16 02:34:53;;;;;;;0.20;0.20;;;;;;;10.74;100.00;98949.44;5039270;28;20049;-58
2024/02/16 02:37:20;;;;;;;0.20;0.20;;;;;;;10.70;100.00;98954.47;5035953;28;20045;-58
2024/02/16 02:39:49;;;;;;;0.20;0.20;;;;;;;10.48;100.00;98951.81;5029584;28;20059;-58
2024/02/16 02:42:16;;;;;;;0.20;0.20;;;;;;;10.61;100.00;98952.47;5038430;28;20049;-58
2024/02/16 02:44:49;;;;;;;0.20;0.20;;;;;;;10.58;100.00;98961.81;5031581;28;20053;-58
2024/02/16 02:47:17;;;;;;;0.20;0.20;;;;;;;10.56;100.00;98956.72;5009098;28;20049;-58
2024/02/16 02:49:44;;;;;;;0.20;0.20;;;;;;;10.48;100.00;98956.34;5033772;28;20052;-59
2024/02/16 02:52:11;;;;;;;0.10;0.10;;;;;;;10.46;100.00;98955.78;5029962;28;20118;-58
2024/02/16 02:54:38;;;;;;;0.20;0.20;;;;;;;10.58;100.00;98959.97;5033789;28;20048;-58
2024/02/16 02:57:07;;;;;;;0.20;0.20;;;;;;;10.57;100.00;98950.31;5027425;28;20488;-58
2024/02/16 02:59:34;;;;;;;0.20;0.20;;;;;;;10.70;100.00;98946.44;5034327;28;20073;-58
2024/02/16 03:02:01;;;;;;;0.20;0.20;;;;;;;10.82;100.00;98949.00;5028772;28;20152;-59
2024/02/16 03:04:35;;;;;;;0.20;0.20;;;;;;;10.87;100.00;98945.56;5035995;28;20048;-58
2024/02/16 03:07:02;;;;;;;0.10;0.10;;;;;;;10.81;100.00;98952.75;5031979;28;20499;-58
2024/02/16 03:09:30;;;;;;;0.20;0.20;;;;;;;10.70;100.00;98945.63;5037039;28;20037;-58
2024/02/16 03:11:57;;;;;;;0.20;0.20;;;;;;;10.68;100.00;98951.22;5031412;28;20053;-59
2024/02/16 03:14:28;;;;;;;0.20;0.20;;;;;;;10.76;100.00;98950.81;5024630;28;20832;-58
2024/02/16 03:16:55;;;;;;;0.20;0.20;;;;;;;10.73;100.00;98956.69;5034514;28;20037;-58
2024/02/16 03:19:23;;;;;;;0.20;0.20;;;;;;;10.57;100.00;98958.34;5032820;28;20139;-59
2024/02/16 03:21:52;;;;;;;0.20;0.20;;;;;;;10.47;100.00;98963.56;5030487;28;20049;-59
2024/02/16 03:24:19;;;;;;;0.20;0.20;;;;;;;10.27;100.00;98958.72;5033519;28;22897;-58
2024/02/16 03:26:48;;;;;;;0.10;0.10;;;;;;;10.14;100.00;98957.22;5031320;28;20504;-60
2024/02/16 03:29:15;;;;;;;0.20;0.20;;;;;;;10.31;100.00;98959.09;5031061;28;20611;-58
2024/02/16 03:31:43;;;;;;;0.20;0.20;;;;;;;10.47;100.00;98960.09;5029840;28;20163;-59
2024/02/16 03:34:10;;;;;;;0.20;0.20;;;;;;;10.66;100.00;98965.94;5026012;28;20049;-58
2024/02/16 03:36:38;;;;;;;0.20;0.20;;;;;;;10.63;100.00;98961.09;5031094;28;20356;-58
2024/02/16 03:39:08;;;;;;;0.10;0.10;;;;;;;10.41;100.00;98953.88;5033900;28;20053;-58
2024/02/16 03:41:37;;;;;;;0.20;0.20;;;;;;;10.31;100.00;98951.84;5035827;28;20053;-58
2024/02/16 03:44:04;;;;;;;0.20;0.20;;;;;;;10.22;100.00;98950.63;5028657;28;20056;-59
2024/02/16 03:46:31;;;;;;;0.20;0.20;;;;;;;10.19;100.00;98958.34;5031757;28;20522;-58
2024/02/16 03:49:00;;;;;;;0.20;0.20;;;;;;;10.17;100.00;98952.41;5031914;28;20041;-58
2024/02/16 03:51:27;;;;;;;0.20;0.20;;;;;;;10.31;100.00;98954.53;5026468;28;20102;-58
2024/02/16 03:53:54;;;;;;;0.10;0.10;;;;;;;10.35;100.00;98952.97;5023857;28;20396;-58
2024/02/16 03:56:28;;;;;;;0.20;0.20;;;;;;;10.41;100.00;98951.19;5035962;28;20041;-59
2024/02/16 03:58:55;;;;;;;0.20;0.20;;;;;;;10.45;100.00;98960.31;5029257;28;20091;-58
2024/02/16 04:01:23;;;;;;;0.10;0.10;;;;;;;10.50;100.00;98963.06;5030731;28;20407;-58
2024/02/16 04:03:52;;;;;;;0.20;0.20;;;;;;;10.53;100.00;98962.59;5028437;28;20077;-59
2024/02/16 04:06:21;;;;;;;0.20;0.20;;;;;;;10.60;100.00;98961.59;5029783;28;20042;-58
2024/02/16 04:08:49;;;;;;;0.20;0.20;;;;;;;10.63;100.00;98961.09;5028774;28;20511;-58
2024/02/16 04:11:17;;;;;;;0.20;0.20;;;;;;;10.61;100.00;98968.56;5032946;28;20619;-58
2024/02/16 04:13:44;;;;;;;0.10;0.10;;;;;;;10.66;100.00;98966.78;5029851;28;20614;-58
2024/02/16 04:16:11;;;;;;;0.20;0.20;;;;;;;10.71;100.00;98969.53;5027254;28;20471;-58
2024/02/16 04:18:38;;;;;;;0.10;0.10;;;;;;;10.62;100.00;98959.47;5029332;28;20049;-58
2024/02/16 04:21:05;;;;;;;0.20;0.20;;;;;;;10.61;100.00;98964.03;5023484;28;20455;-58
2024/02/16 04:23:34;;;;;;;0.20;0.20;;;;;;;10.46;100.00;98970.00;5027579;28;20042;-58
2024/02/16 04:26:02;;;;;;;0.10;0.10;;;;;;;10.20;100.00;98968.00;5032739;28;20060;-58
2024/02/16 04:28:29;;;;;;;0.17;0.17;;;;;;;10.23;100.00;98967.50;5025220;28;20049;-58
2024/02/16 04:30:56;;;;;;;0.20;0.20;;;;;;;10.07;100.00;98969.94;5034755;28;20112;-58
2024/02/16 04:33:23;;;;;;;0.20;0.20;;;;;;;10.08;100.00;98963.56;5029472;28;20056;-58
2024/02/16 04:35:50;;;;;;;0.10;0.10;;;;;;;10.02;100.00;98961.84;5032898;28;20507;-58
2024/02/16 04:38:18;;;;;;;0.20;0.20;;;;;;;10.35;100.00;98961.00;5033401;28;20118;-61
2024/02/16 04:40:46;;;;;;;0.20;0.20;;;;;;;10.65;100.00;98953.63;5040276;28;20477;-58
2024/02/16 04:43:13;;;;;;;0.20;0.20;;;;;;;10.67;100.00;98956.84;5031387;28;20119;-58
2024/02/16 04:45:40;;;;;;;0.20;0.20;;;;;;;10.72;100.00;98967.63;5030727;28;20073;-58
2024/02/16 04:48:09;;;;;;;0.20;0.20;;;;;;;10.74;100.00;98962.84;5030003;28;20053;-57
2024/02/16 04:50:36;;;;;;;0.25;0.25;;;;;;;10.66;100.00;98961.41;5023858;28;20045;-58
2024/02/16 04:53:03;;;;;;;0.20;0.20;;;;;;;10.62;100.00;98970.19;5029735;28;20041;-58
2024/02/16 04:55:30;;;;;;;0.20;0.20;;;;;;;10.51;100.00;98977.31;5028078;28;20045;-58
2024/02/16 04:57:59;;;;;;;0.20;0.20;;;;;;;10.23;100.00;98967.50;5035168;28;20049;-58
2024/02/16 05:00:27;;;;;;;0.20;0.20;;;;;;;10.16;100.00;98962.31;5034791;28;20047;-58
2024/02/16 05:02:54;;;;;;;0.20;0.20;;;;;;;10.23;100.00;98964.81;5036697;28;20084;-58
2024/02/16 05:05:21;;;;;;;0.20;0.20;;;;;;;10.20;100.00;98959.97;5034591;28;20053;-57
2024/02/16 05:07:49;;;;;;;0.20;0.20;;;;;;;10.15;100.00;98955.34;5039089;28;20052;-58
2024/02/16 05:10:17;;;;;;;0.20;0.20;;;;;;;10.19;100.00;98955.66;5033547;28;20128;-58
2024/02/16 05:12:44;;;;;;;0.20;0.20;;;;;;;10.26;100.00;98964.31;5036206;28;20122;-58
2024/02/16 05:15:13;;;;;;;0.20;0.20;;;;;;;10.25;100.00;98962.69;5029268;28;20041;-58
2024/02/16 05:17:40;;;;;;;0.20;0.20;;;;;;;10.05;100.00;98953.31;5033608;28;20180;-58
2024/02/16 05:20:14;;;;;;;0.20;0.20;;;;;;;10.15;100.00;98950.78;5035167;28;20050;-58
2024/02/16 05:22:43;;;;;;;0.20;0.20;;;;;;;10.15;100.00;98949.97;5036072;28;20072;-58
2024/02/16 05:25:10;;;;;;;0.20;0.20;;;;;;;10.15;100.00;98944.63;5034867;28;20037;-58
2024/02/16 05:27:38;;;;;;;0.20;0.20;;;;;;;10.13;100.00;98946.72;5035831;28;20103;-58
2024/02/16 05:30:07;;;;;;;0.20;0.20;;;;;;;10.03;100.00;98944.72;5039259;28;20037;-59
2024/02/16 05:32:36;;;;;;;0.20;0.20;;;;;;;10.17;100.00;98937.16;5037449;28;20045;-58
2024/02/16 05:35:11;;;;;;;0.20;0.20;;;;;;;10.23;100.00;98933.47;5038604;28;20046;-58
2024/02/16 05:37:39;;;;;;;0.20;0.20;;;;;;;10.38;100.00;98932.09;5033544;28;20047;-58
2024/02/16 05:40:18;;;;;;;0.20;0.20;;;;;;;10.36;100.00;98943.06;5035227;28;20048;-58
2024/02/16 05:42:47;;;;;;;0.20;0.20;;;;;;;10.36;100.00;98943.06;5033514;28;20542;-59
2024/02/16 05:45:14;;;;;;;0.20;0.20;;;;;;;10.36;100.00;98945.75;5026366;28;20041;-58
2024/02/16 05:47:45;;;;;;;0.20;0.20;;;;;;;10.36;100.00;98945.75;5034128;28;20551;-58
2024/02/16 05:50:11;;;;;;;;;;;;;;;10.39;100.00;98933.75;5019549;28;20108;-58
2024/02/16 05:52:39;;;;;;;0.20;0.20;;;;;;;10.34;100.00;98937.97;5036221;28;19925;-58
2024/02/16 05:55:07;;;;;;;0.20;0.20;;;;;;;10.24;100.00;98937.00;5031059;28;20140;-58
2024/02/16 05:57:34;;;;;;;0.20;0.20;;;;;;;10.25;100.00;98939.41;5034166;28;20050;-58
2024/02/16 06:00:02;;;;;;;0.20;0.20;;;;;;;10.24;100.00;98931.63;5035602;28;20167;-58
2024/02/16 06:02:32;;;;;;;0.20;0.20;;;;;;;10.18;100.00;98930.72;5035544;28;20049;-58
2024/02/16 06:05:00;;;;;;;0.20;0.20;;;;;;;10.43;100.00;98927.59;5031239;28;20059;-58
2024/02/16 06:07:27;;;;;;;0.25;0.25;;;;;;;10.40;100.00;98925.44;5038238;28;20041;-58
2024/02/16 06:09:56;;;;;;;0.20;0.20;;;;;;;10.42;100.00;98933.22;5029773;28;20053;-58
2024/02/16 06:12:23;;;;;;;0.20;0.20;;;;;;;10.49;100.00;98929.31;5038397;28;20045;-58
2024/02/16 06:14:50;;;;;;;0.22;0.22;;;;;;;10.59;100.00;98923.28;5038008;28;20048;-58
2024/02/16 06:17:17;;;;;;;0.20;0.20;;;;;;;10.55;100.00;98930.97;5027349;28;20167;-58
2024/02/16 06:19:44;;;;;;;0.20;0.20;;;;;;;10.65;100.00;98922.25;5030227;28;20554;-57
2024/02/16 06:22:12;;;;;;;0.20;0.20;;;;;;;10.57;100.00;98942.25;5031827;28;20045;-58
2024/02/16 06:24:39;;;;;;;0.20;0.20;;;;;;;10.56;100.00;98951.38;5032640;28;20111;-58
2024/02/16 06:27:08;;;;;;;0.20;0.20;;;;;;;10.57;100.00;98944.94;5030332;28;20056;-58
2024/02/16 06:29:35;;;;;;;0.20;0.20;;;;;;;10.49;100.00;98953.44;5032646;28;20107;-58
2024/02/16 06:32:02;;;;;;;0.20;0.20;;;;;;;10.51;100.00;98961.22;5036717;28;20051;-58
2024/02/16 06:34:31;;;;;;;0.20;0.20;;;;;;;10.44;100.00;98958.72;5034881;28;20044;-58
2024/02/16 06:36:58;;;;;;;0.20;0.20;;;;;;;10.39;100.00;98966.69;5029865;28;20563;-58
2024/02/16 06:39:26;;;;;;;0.20;0.20;;;;;;;10.36;100.00;98975.22;5027749;28;20073;-58
2024/02/16 06:41:53;;;;;;;0.20;0.20;;;;;;;10.31;100.00;98964.44;5035461;28;20055;-58
2024/02/16 06:44:22;;;;;;;0.20;0.20;;;;;;;10.15;100.00;98979.44;5037769;28;20123;-58
2024/02/16 06:46:49;;;;;;;0.20;0.20;;;;;;;10.28;100.00;98975.63;5025511;28;20514;-58
2024/02/16 06:49:17;;;;;;;0.20;0.20;;;;;;;10.23;100.00;98979.00;5039197;28;20864;-58
2024/02/16 06:51:44;;;;;;;0.20;0.20;;;;;;;10.22;100.00;98984.63;5031260;28;20389;-59
2024/02/16 06:54:11;;;;;;;0.20;0.20;;;;;;;10.19;100.00;98983.25;5034900;28;20056;-60
2024/02/16 06:56:40;;;;;;;0.20;0.20;;;;;;;10.08;100.00;98993.00;5036112;28;20048;-59
2024/02/16 06:59:08;;;;;;;0.25;0.25;;;;;;;10.09;100.00;98993.81;5031866;28;20045;-58
2024/02/16 07:01:36;;;;;;;0.28;0.28;;;;;;;10.26;100.00;98993.78;5034173;28;20124;-59
2024/02/16 07:04:03;;;;;;;0.20;0.20;;;;;;;10.28;100.00;99007.78;5030551;28;20037;-59
2024/02/16 07:06:30;;;;;;;0.20;0.20;;;;;;;10.39;100.00;99001.50;5028758;28;20052;-58
2024/02/16 07:08:57;;;;;;;0.20;0.20;;;;;;;10.30;100.00;99009.16;5037013;28;20140;-58
2024/02/16 07:11:25;;;;;;;0.20;0.20;;;;;;;10.28;100.00;99010.44;5033338;28;20045;-59
2024/02/16 07:13:53;;;;;;;0.20;0.20;;;;;;;10.24;100.00;99009.31;5035843;28;20606;-59
2024/02/16 07:16:20;;;;;;;0.20;0.20;;;;;;;10.33;100.00;99007.84;5032901;28;20125;-57
2024/02/16 07:18:47;;;;;;;0.20;0.20;;;;;;;10.38;100.00;99001.75;5027085;28;20657;-57
2024/02/16 07:21:16;;;;;;;0.17;0.17;;;;;;;10.40;100.00;99000.44;5027613;28;20049;-57
2024/02/16 07:23:43;;;;;;;0.25;0.25;;;;;;;10.43;100.00;99005.31;5032186;28;20059;-57
2024/02/16 07:26:10;;;;;;;0.20;0.20;;;;;;;10.28;100.00;99018.47;5032546;28;20056;-57
2024/02/16 07:28:37;;;;;;;0.20;0.20;;;;;;;10.35;100.00;99019.13;5032909;28;20089;-58
2024/02/16 07:31:06;;;;;;;0.10;0.10;;;;;;;10.42;100.00;99019.78;5030475;28;20050;-59
2024/02/16 07:33:34;;;;;;;0.20;0.20;;;;;;;10.35;100.00;99021.81;5032142;28;20767;-58
2024/02/16 07:36:01;;;;;;;0.20;0.20;;;;;;;10.39;100.00;99014.91;5028294;28;20050;-59
2024/02/16 07:38:28;;;;;;;0.20;0.20;;;;;;;10.46;100.00;99022.75;5028016;28;20042;-59
2024/02/16 07:40:56;;;;;;;0.20;0.20;;;;;;;10.45;100.00;99030.00;5032804;28;20045;-58
2024/02/16 07:43:24;;;;;;;0.10;0.10;;;;;;;10.49;100.00;99025.78;5029670;28;20051;-58
2024/02/16 07:45:53;;;;;;;0.20;0.20;;;;;;;10.54;100.00;99028.53;5027373;28;20494;-58
2024/02/16 07:48:22;;;;;;;0.20;0.20;;;;;;;10.64;100.00;99021.69;5037192;28;20510;-58
2024/02/16 07:50:50;;;;;;;0.20;0.20;;;;;;;10.73;100.00;99025.53;5031807;28;20053;-58
2024/02/16 07:53:17;;;;;;;0.20;0.20;;;;;;;10.66;100.00;99030.25;5032412;28;20567;-58
2024/02/16 07:55:44;;;;;;;0.20;0.20;;;;;;;10.83;100.00;99027.53;5035751;28;20065;-58
2024/02/16 07:58:12;;;;;;;0.20;0.20;;;;;;;10.80;100.00;99026.16;5037458;28;20052;-58
2024/02/16 08:00:40;;;;;;;0.20;0.20;;;;;;;10.74;100.00;99032.53;5028913;28;20041;-58
2024/02/16 08:03:07;;;;;;;0.20;0.20;;;;;;;10.82;100.00;99037.47;5032454;28;20385;-58
2024/02/16 08:05:35;;;;;;;0.20;0.20;;;;;;;10.89;100.00;99035.41;5032168;28;20826;-58
2024/02/16 08:08:03;;;;;;;0.20;0.20;;;;;;;10.97;100.00;99045.69;5038856;28;20049;-58
2024/02/16 08:10:30;;;;;;;0.20;0.20;;;;;;;11.05;100.00;99046.31;5033635;28;20126;-58
2024/02/16 08:12:57;;;;;;;0.20;0.20;;;;;;;11.09;100.00;99055.50;5040443;28;20045;-59
2024/02/16 08:15:25;;;;;;;0.20;0.20;;;;;;;11.19;100.00;99056.44;5033774;28;20052;-58
2024/02/16 08:17:52;;;;;;;0.20;0.20;;;;;;;11.10;100.00;99055.22;5033356;28;20140;-58
2024/02/16 08:20:20;;;;;;;0.20;0.20;;;;;;;11.09;100.00;99056.31;5032087;28;20060;-59
2024/02/16 08:22:49;;;;;;;0.20;0.20;;;;;;;11.10;100.00;99057.13;5030745;28;20060;-58
2024/02/16 08:25:16;;;;;;;0.20;0.20;;;;;;;11.08;100.00;99053.88;5028439;28;20372;-58
2024/02/16 08:27:43;;;;;;;0.20;0.20;;;;;;;11.08;100.00;99056.53;5037855;28;20498;-58
2024/02/16 08:30:11;;;;;;;0.20;0.20;;;;;;;11.13;100.00;99056.59;5036299;28;20135;-58
2024/02/16 08:32:38;;;;;;;0.10;0.10;;;;;;;11.27;100.00;99057.84;5028614;28;20041;-58
2024/02/16 08:35:06;;;;;;;0.20;0.20;;;;;;;11.29;100.00;99063.78;5037043;28;20053;-58
2024/02/16 08:37:33;;;;;;;0.20;0.20;;;;;;;11.48;100.00;99060.75;5020985;28;20044;-58
2024/02/16 08:40:03;;;;;;;0.10;0.10;;;;;;;11.54;100.00;99065.94;5041121;28;20127;-58
2024/02/16 08:42:31;;;;;;;;;;;;;;;11.55;100.00;99064.06;5034442;28;20098;-58
2024/02/16 08:45:00;;;;;;;0.20;0.20;;;;;;;11.72;100.00;99063.97;5040151;28;19936;-59
2024/02/16 08:47:27;;;;;;;0.30;0.30;;;;;;;11.74;100.00;99065.31;5029851;28;20060;-58
2024/02/16 08:49:54;;;;;;;0.20;0.20;;;;;;;11.82;100.00;99072.91;5045348;28;20087;-59
2024/02/16 08:52:21;;;;;;;0.20;0.20;;;;;;;11.77;100.00;99067.50;5037066;28;20128;-59
2024/02/16 08:54:48;;;;;;;0.20;0.20;;;;;;;11.88;100.00;99068.44;5038476;28;20056;-58
2024/02/16 08:57:17;;;;;;;0.20;0.20;;;;;;;12.12;99.17;99071.59;5032923;28;20076;-58
2024/02/16 08:59:44;;;;;;;0.20;0.20;;;;;;;12.24;98.04;99083.00;5034235;28;20407;-58
2024/02/16 09:02:11;;;;;;;0.20;0.20;;;;;;;12.00;98.28;99081.69;5036246;28;20052;-58
2024/02/16 09:04:38;;;;;;;0.10;0.10;;;;;;;11.92;98.79;99084.84;5034879;28;20049;-58
2024/02/16 09:07:05;;;;;;;0.13;0.13;;;;;;;12.03;99.93;99097.31;5037591;28;20048;-58
2024/02/16 09:09:33;;;;;;;0.20;0.20;;;;;;;11.91;100.00;99091.31;5041955;28;20519;-58
2024/02/16 09:12:00;;;;;;;0.20;0.20;;;;;;;11.99;100.00;99098.91;5036486;28;20070;-59
2024/02/16 09:14:29;;;;;;;0.20;0.20;;;;;;;12.05;100.00;99103.22;5032059;28;20450;-58
2024/02/16 09:16:56;;;;;;;0.20;0.20;;;;;;;12.14;100.00;99101.72;5031687;28;20037;-58
2024/02/16 09:19:23;;;;;;;0.10;0.10;;;;;;;11.95;100.00;99095.88;5033381;28;20458;-59
2024/02/16 09:21:51;;;;;;;0.10;0.10;;;;;;;12.01;100.00;99110.19;5032812;28;20139;-57
2024/02/16 09:24:18;;;;;;;0.20;0.20;;;;;;;12.12;100.00;99116.47;5036434;28;20053;-58
2024/02/16 09:26:47;;;;;;;0.10;0.10;;;;;;;12.00;100.00;99120.09;5035415;28;20080;-58
2024/02/16 09:29:14;;;;;;;0.10;0.10;;;;;;;12.16;100.00;99131.81;5022288;28;20044;-59
2024/02/16 09:31:43;;;;;;;0.20;0.20;;;;;;;12.19;100.00;99127.81;5033219;28;20542;-58
2024/02/16 09:34:10;;;;;;;0.10;0.10;;;;;;;12.38;100.00;99137.13;5036802;28;20591;-59
2024/02/16 09:36:37;;;;;;;0.10;0.10;;;;;;;12.33;100.00;99133.56;5034069;28;20124;-60
2024/02/16 09:39:05;;;;;;;0.20;0.20;;;;;;;12.24;100.00;99139.41;5035533;28;20139;-59
2024/02/16 09:41:34;;;;;;;0.20;0.20;;;;;;;12.41;100.00;99131.22;5038979;28;20159;-59
2024/02/16 09:44:01;;;;;;;0.20;0.20;;;;;;;12.45;100.00;99142.25;5038800;28;20048;-58
2024/02/16 09:46:29;;;;;;;0.20;0.20;;;;;;;12.48;99.33;99141.75;5031437;28;20057;-59
2024/02/16 09:48:59;;;;;;;0.20;0.20;;;;;;;12.54;99.69;99145.31;5034309;28;20041;-59
2024/02/16 09:51:26;;;;;;;0.15;0.15;;;;;;;12.58;99.48;99143.72;5034570;28;20415;-59
2024/02/16 09:53:53;;;;;;;0.10;0.10;;;;;;;12.72;97.35;99137.63;5031984;28;20525;-59
2024/02/16 09:56:21;;;;;;;0.10;0.10;;;;;;;12.63;97.84;99149.13;5029988;28;20045;-58
2024/02/16 09:58:48;;;;;;;0.10;0.10;;;;;;;12.67;96.74;99145.66;5034510;28;20073;-57
2024/02/16 10:01:20;;;;;;;0.10;0.10;;;;;;;12.76;96.23;99154.06;5034833;28;20057;-59
2024/02/16 10:03:47;;;;;;;0.10;0.10;;;;;;;12.71;97.21;99141.41;5041135;28;20045;-59
2024/02/16 10:06:16;;;;;;;0.10;0.10;;;;;;;12.61;97.51;99154.78;5031736;28;20065;-58
2024/02/16 10:08:50;;;;;;;0.10;0.10;;;;;;;12.82;97.76;99154.91;5033763;28;20120;-59
2024/02/16 10:11:18;;;;;;;0.03;0.03;;;;;;;12.73;97.41;99160.78;5031502;28;20049;-59
2024/02/16 10:13:56;;;;;;;0.15;0.15;;;;;;;12.82;96.52;99173.75;5038894;28;20048;-59
2024/02/16 10:16:23;;;;;;;0.10;0.10;;;;;;;12.83;96.79;99180.72;5033521;28;20041;-58
2024/02/16 10:18:50;;;;;;;0.20;0.20;;;;;;;12.96;95.64;99169.53;5037812;28;20420;-59
2024/02/16 10:21:27;;;;;;;0.10;0.10;;;;;;;13.01;95.39;99172.25;5028244;28;20128;-59
2024/02/16 10:24:01;;;;;;;0.10;0.10;;;;;;;13.11;95.61;99180.41;5038550;28;20816;-59
2024/02/16 10:26:28;;;;;;;0.10;0.10;;;;;;;13.02;94.42;99178.44;5032679;28;20127;-58
2024/02/16 10:28:56;;;;;;;0.10;0.10;;;;;;;13.16;95.15;99180.41;5041118;28;20056;-59
2024/02/16 10:31:27;;;;;;;0.10;0.10;;;;;;;13.28;93.77;99182.94;5037598;28;20148;-59
2024/02/16 10:33:57;;;;;;;0.10;0.10;;;;;;;13.19;93.23;99186.34;5036312;28;20101;-58
2024/02/16 10:36:26;;;;;;;0.10;0.10;;;;;;;13.16;94.90;99188.50;5032061;28;20072;-59
2024/02/16 10:38:53;;;;;;;0.10;0.10;;;;;;;13.19;94.94;99184.47;5032064;28;20115;-58
2024/02/16 10:41:21;;;;;;;0.13;0.13;;;;;;;13.23;94.62;99190.13;5033419;28;20049;-59
2024/02/16 10:43:49;;;;;;;0.10;0.10;;;;;;;13.19;95.00;99194.44;5036914;28;20369;-58
2024/02/16 10:46:16;;;;;;;0.15;0.15;;;;;;;13.22;94.68;99200.09;5034463;28;20656;-58
2024/02/16 10:48:44;;;;;;;0.20;0.20;;;;;;;13.17;94.99;99198.19;5035232;28;20535;-59
2024/02/16 10:51:12;;;;;;;0.10;0.10;;;;;;;13.12;96.11;99190.06;5029178;28;20038;-58
2024/02/16 10:53:41;;;;;;;0.00;0.00;;;;;;;13.19;95.94;99195.25;5033990;28;20043;-58
2024/02/16 10:56:08;;;;;;;0.10;0.10;;;;;;;13.14;96.55;99197.91;5037093;28;20049;-58
2024/02/16 10:58:35;;;;;;;0.10;0.10;;;;;;;13.23;96.63;99211.66;5028740;28;20663;-58
2024/02/16 11:01:08;;;;;;;0.10;0.10;;;;;;;13.23;96.33;99212.50;5037588;28;20136;-58
2024/02/16 11:03:38;;;;;;;0.10;0.10;;;;;;;13.25;96.36;99204.16;5031071;28;20114;-59
2024/02/16 11:06:15;;;;;;;0.10;0.10;;;;;;;13.23;96.86;99208.97;5026664;28;20549;-58
2024/02/16 11:08:43;;;;;;;0.10;0.10;;;;;;;13.23;96.71;99206.28;5030455;28;20056;-58
2024/02/16 11:11:11;;;;;;;0.10;0.10;;;;;;;13.25;97.58;99209.53;5033337;28;20132;-58
2024/02/16 11:13:39;;;;;;;0.10;0.10;;;;;;;13.29;97.57;99207.97;5035623;28;20052;-57
2024/02/16 11:16:08;;;;;;;0.10;0.10;;;;;;;13.27;97.35;99208.22;5038649;28;20037;-58
2024/02/16 11:18:38;;;;;;;0.10;0.10;;;;;;;13.21;97.98;99213.81;5030203;28;20136;-58
2024/02/16 11:21:07;;;;;;;0.15;0.15;;;;;;;13.12;98.59;99211.59;5029244;28;20136;-60
2024/02/16 11:23:35;;;;;;;0.10;0.10;;;;;;;13.13;99.33;99204.38;5032235;28;20042;-61
2024/02/16 11:26:04;;;;;;;0.10;0.10;;;;;;;13.13;99.35;99207.84;5032558;28;20043;-57
2024/02/16 11:28:35;;;;;;;0.13;0.13;;;;;;;12.93;100.00;99219.28;5028045;28;20049;-58
2024/02/16 11:31:02;;;;;;;0.20;0.20;;;;;;;13.02;100.00;99208.84;5034055;28;20045;-59